createdAt,value
2022-09-02T00:00:43.296Z,94.90
2022-09-02T00:03:11.961Z,95.20
2022-09-02T00:05:40.403Z,95.20
2022-09-02T00:08:09.205Z,95.20
2022-09-02T00:10:40.677Z,95.30
2022-09-02T00:13:10.754Z,95.30
2022-09-02T00:15:39.200Z,95.20
2022-09-02T00:18:10.272Z,95.20
2022-09-02T00:20:46.152Z,95.30
2022-09-02T00:23:15.205Z,95.30
2022-09-02T00:25:45.628Z,95.30
2022-09-02T00:28:16.116Z,95.40
2022-09-02T00:30:45.133Z,95.30
2022-09-02T00:33:13.968Z,95.40
2022-09-02T00:35:42.821Z,95.50
2022-09-02T00:38:12.404Z,95.50
2022-09-02T00:40:44.688Z,95.70
2022-09-02T00:43:13.153Z,95.70
2022-09-02T00:45:41.450Z,95.90
2022-09-02T00:48:09.733Z,95.90
2022-09-02T00:50:38.570Z,96.10
2022-09-02T00:53:11.051Z,96.20
2022-09-02T00:55:44.899Z,96.30
2022-09-02T00:58:21.519Z,96.30
2022-09-02T01:00:52.599Z,96.40
2022-09-02T01:03:23.226Z,96.60
2022-09-02T01:05:53.462Z,96.60
2022-09-02T01:08:25.567Z,96.80
2022-09-02T01:10:55.796Z,96.80
2022-09-02T01:13:28.511Z,96.80
2022-09-02T01:16:00.244Z,96.90
2022-09-02T01:18:32.101Z,96.90
2022-09-02T01:21:01.772Z,97.00
2022-09-02T01:23:34.744Z,97.00
2022-09-02T01:26:03.653Z,97.00
2022-09-02T01:28:33.515Z,97.10
2022-09-02T01:31:02.154Z,97.00
2022-09-02T01:33:31.721Z,97.00
2022-09-02T01:36:02.894Z,97.20
2022-09-02T01:38:33.260Z,97.20
2022-09-02T01:41:01.798Z,97.30
2022-09-02T01:43:30.357Z,97.40
2022-09-02T01:46:00.030Z,97.30
2022-09-02T01:48:31.644Z,97.30
2022-09-02T01:51:02.960Z,97.40
2022-09-02T01:53:33.674Z,97.50
2022-09-02T01:56:02.191Z,97.40
2022-09-02T01:58:34.493Z,97.30
2022-09-02T02:01:03.408Z,97.40
2022-09-02T02:03:32.498Z,97.50
2022-09-02T02:06:01.008Z,97.60
2022-09-02T02:08:31.993Z,97.50
2022-09-02T02:11:01.951Z,97.60
2022-09-02T02:13:32.119Z,97.80
2022-09-02T02:16:00.498Z,97.80
2022-09-02T02:18:29.788Z,97.80
2022-09-02T02:20:58.210Z,97.60
2022-09-02T02:23:26.543Z,98.30
2022-09-02T02:25:56.187Z,98.00
2022-09-02T02:28:24.532Z,97.90
2022-09-02T02:30:54.682Z,98.00
2022-09-02T02:33:23.490Z,98.10
2022-09-02T02:35:59.308Z,97.70
2022-09-02T02:38:27.586Z,97.90
2022-09-02T02:40:58.558Z,98.10
2022-09-02T02:43:27.759Z,97.90
2022-09-02T02:45:56.060Z,97.90
2022-09-02T02:48:24.521Z,98.00
2022-09-02T02:50:52.992Z,98.00
2022-09-02T02:53:21.446Z,98.20
2022-09-02T02:55:50.151Z,98.20
2022-09-02T02:58:21.279Z,98.10
2022-09-02T03:00:51.518Z,99.10
2022-09-02T03:03:22.656Z,98.40
2022-09-02T03:05:54.749Z,98.30
2022-09-02T03:08:25.791Z,98.40
2022-09-02T03:10:56.271Z,98.30
2022-09-02T03:13:29.565Z,98.20
2022-09-02T03:16:02.042Z,98.10
2022-09-02T03:18:30.417Z,98.10
2022-09-02T03:20:59.793Z,98.50
2022-09-02T03:23:28.672Z,98.30
2022-09-02T03:25:56.969Z,98.50
2022-09-02T03:28:34.954Z,98.30
2022-09-02T03:31:05.254Z,98.20
2022-09-02T03:33:34.051Z,98.60
2022-09-02T03:36:02.377Z,98.30
2022-09-02T03:38:30.958Z,98.20
2022-09-02T03:40:59.231Z,98.50
2022-09-02T03:43:27.530Z,98.30
2022-09-02T03:45:57.852Z,98.60
2022-09-02T03:48:26.188Z,98.40
2022-09-02T03:50:54.393Z,98.40
2022-09-02T03:53:22.747Z,98.50
2022-09-02T03:55:56.807Z,98.30
2022-09-02T03:58:28.131Z,98.20
2022-09-02T04:01:00.220Z,98.10
2022-09-02T04:03:28.858Z,98.10
2022-09-02T04:05:57.250Z,98.20
2022-09-02T04:08:28.328Z,98.70
2022-09-02T04:11:00.364Z,98.10
2022-09-02T04:13:28.563Z,98.30
2022-09-02T04:16:01.170Z,98.40
2022-09-02T04:18:31.674Z,98.40
2022-09-02T04:21:01.308Z,98.30
2022-09-02T04:23:30.409Z,98.40
2022-09-02T04:25:58.973Z,98.60
2022-09-02T04:28:27.211Z,98.80
2022-09-02T04:30:55.995Z,98.40
2022-09-02T04:33:24.313Z,98.30
2022-09-02T04:35:53.976Z,98.30
2022-09-02T04:38:23.330Z,98.60
2022-09-02T04:40:51.716Z,98.50
2022-09-02T04:43:20.968Z,98.60
2022-09-02T04:45:50.089Z,98.50
2022-09-02T04:48:20.517Z,98.90
2022-09-02T04:50:50.130Z,98.50
2022-09-02T04:53:20.761Z,98.60
2022-09-02T04:55:48.986Z,99.00
2022-09-02T04:58:17.523Z,98.60
2022-09-02T05:00:49.653Z,98.70
2022-09-02T05:03:20.058Z,98.40
2022-09-02T05:05:49.272Z,98.50
2022-09-02T05:08:22.425Z,98.60
2022-09-02T05:10:54.141Z,98.80
2022-09-02T05:13:23.802Z,98.80
2022-09-02T05:15:54.792Z,98.90
2022-09-02T05:18:23.719Z,98.90
2022-09-02T05:20:52.681Z,98.90
2022-09-02T05:23:21.284Z,98.60
2022-09-02T05:25:49.711Z,98.70
2022-09-02T05:28:20.369Z,98.70
2022-09-02T05:30:48.847Z,98.80
2022-09-02T05:33:18.360Z,99.00
2022-09-02T05:35:53.188Z,98.90
2022-09-02T05:38:21.844Z,98.80
2022-09-02T05:40:50.364Z,98.90
2022-09-02T05:43:21.366Z,98.70
2022-09-02T05:45:50.166Z,98.80
2022-09-02T05:48:37.193Z,99.20
2022-09-02T05:51:07.472Z,99.10
2022-09-02T05:53:36.970Z,99.30
2022-09-02T05:56:06.549Z,99.30
2022-09-02T05:58:37.564Z,99.30
2022-09-02T06:01:09.700Z,99.30
2022-09-02T06:03:38.333Z,99.20
2022-09-02T06:06:08.632Z,99.10
2022-09-02T06:08:40.159Z,99.30
2022-09-02T06:11:11.975Z,99.40
2022-09-02T06:13:43.912Z,99.50
2022-09-02T06:16:15.404Z,99.50
2022-09-02T06:18:45.281Z,99.60
2022-09-02T06:21:14.063Z,99.60
2022-09-02T06:23:45.989Z,99.40
2022-09-02T06:26:16.140Z,99.90
2022-09-02T06:28:47.202Z,99.40
2022-09-02T06:31:19.704Z,99.90
2022-09-02T06:33:52.277Z,99.90
2022-09-02T06:36:22.823Z,99.70
2022-09-02T06:38:59.839Z,99.30
2022-09-02T06:41:31.429Z,99.50
2022-09-02T06:44:07.051Z,99.60
2022-09-02T06:46:44.208Z,99.60
2022-09-02T06:49:16.236Z,99.80
2022-09-02T06:51:49.129Z,99.40
2022-09-02T06:54:20.860Z,99.20
2022-09-02T06:56:54.511Z,99.00
2022-09-02T06:59:27.141Z,99.20
2022-09-02T07:01:59.235Z,99.00
2022-09-02T07:04:46.105Z,99.20
2022-09-02T07:07:17.632Z,99.20
2022-09-02T07:10:01.987Z,99.30
2022-09-02T07:12:30.725Z,99.80
2022-09-02T07:15:06.156Z,99.10
2022-09-02T07:17:39.700Z,98.90
2022-09-02T07:20:14.872Z,98.20
2022-09-02T07:25:20.388Z,98.40
2022-09-02T07:27:51.547Z,98.30
2022-09-02T07:30:22.108Z,98.40
2022-09-02T07:32:56.658Z,97.50
2022-09-02T07:35:26.613Z,97.80
2022-09-02T07:37:55.889Z,97.20
2022-09-02T07:40:24.489Z,97.10
2022-09-02T07:42:54.075Z,97.80
2022-09-02T07:45:25.516Z,98.50
2022-09-02T07:47:55.076Z,98.00
2022-09-02T07:50:27.086Z,98.10
2022-09-02T07:52:56.588Z,98.00
2022-09-02T07:55:25.761Z,97.90
2022-09-02T07:57:55.628Z,98.20
2022-09-02T08:00:27.884Z,97.70
2022-09-02T08:03:01.898Z,97.20
2022-09-02T08:05:36.599Z,97.20
2022-09-02T08:08:06.012Z,97.10
2022-09-02T08:10:35.646Z,97.10
2022-09-02T08:13:05.575Z,97.20
2022-09-02T08:15:36.964Z,97.70
2022-09-02T08:18:06.941Z,98.10
2022-09-02T08:20:37.521Z,98.40
2022-09-02T08:23:33.258Z,97.30
2022-09-02T08:25:56.664Z,96.60
2022-09-02T08:28:25.122Z,96.30
2022-09-02T08:30:58.479Z,96.30
2022-09-02T08:33:27.133Z,96.60
2022-09-02T08:35:55.376Z,97.10
2022-09-02T08:38:23.666Z,96.50
2022-09-02T08:40:53.119Z,96.40
2022-09-02T08:43:32.316Z,96.60
2022-09-02T08:46:05.593Z,96.70
2022-09-02T08:48:39.531Z,97.00
2022-09-02T08:51:11.449Z,96.90
2022-09-02T08:53:51.225Z,97.80
2022-09-02T08:56:20.248Z,96.80
2022-09-02T08:58:56.527Z,96.80
2022-09-02T09:01:37.332Z,96.40
2022-09-02T09:04:26.968Z,96.70
2022-09-02T09:07:14.738Z,96.40
2022-09-02T09:09:59.932Z,97.00
2022-09-02T09:12:42.777Z,96.90
2022-09-02T09:15:14.660Z,96.70
2022-09-02T09:17:49.550Z,96.70
2022-09-02T09:20:20.582Z,97.20
2022-09-02T09:22:52.028Z,96.60
2022-09-02T09:25:20.739Z,96.70
2022-09-02T09:27:48.960Z,96.20
2022-09-02T09:30:17.252Z,95.90
2022-09-02T09:32:57.560Z,96.20
2022-09-02T09:35:26.585Z,96.10
2022-09-02T09:37:55.733Z,94.90
2022-09-02T09:40:30.739Z,94.70
2022-09-02T09:43:14.723Z,95.10
2022-09-02T09:45:45.776Z,94.80
2022-09-02T09:48:23.849Z,95.40
2022-09-02T09:51:18.865Z,95.10
2022-09-02T09:53:47.528Z,95.50
2022-09-02T09:56:32.344Z,94.90
2022-09-02T09:59:08.933Z,94.70
2022-09-02T10:01:38.518Z,95.20
2022-09-02T10:04:42.253Z,94.70
2022-09-02T10:07:00.776Z,94.60
2022-09-02T10:09:34.488Z,95.90
2022-09-02T10:12:05.257Z,95.20
2022-09-02T10:14:36.493Z,94.80
2022-09-02T10:17:28.098Z,94.40
2022-09-02T10:20:05.057Z,94.50
2022-09-02T10:22:59.826Z,93.90
2022-09-02T10:25:38.753Z,94.60
2022-09-02T10:28:16.985Z,94.50
2022-09-02T10:30:56.680Z,94.20
2022-09-02T10:33:38.376Z,94.70
2022-09-02T10:36:20.919Z,95.10
2022-09-02T10:38:51.779Z,94.00
2022-09-02T10:44:27.630Z,93.80
2022-09-02T10:47:01.578Z,93.50
2022-09-02T10:50:05.853Z,92.70
2022-09-02T10:52:48.358Z,93.90
2022-09-02T10:55:26.521Z,92.70
2022-09-02T10:58:01.382Z,94.30
2022-09-02T11:00:32.319Z,92.60
2022-09-02T11:03:11.832Z,92.40
2022-09-02T11:05:48.861Z,92.40
2022-09-02T11:08:29.581Z,93.40
2022-09-02T11:11:07.691Z,93.30
2022-09-02T11:13:44.236Z,93.10
2022-09-02T11:16:19.738Z,92.20
2022-09-02T11:18:58.128Z,91.90
2022-09-02T11:21:36.595Z,91.90
2022-09-02T11:24:11.981Z,90.90
2022-09-02T11:26:43.912Z,92.20
2022-09-02T11:29:18.384Z,91.20
2022-09-02T11:31:53.462Z,90.30
2022-09-02T11:34:39.458Z,89.80
2022-09-02T11:37:10.698Z,90.00
2022-09-02T11:39:59.187Z,89.80
2022-09-02T11:42:54.414Z,88.50
2022-09-02T11:45:37.504Z,87.70
2022-09-02T11:48:46.580Z,88.00
2022-09-02T11:51:34.696Z,86.90
2022-09-02T11:54:05.262Z,86.30
2022-09-02T11:56:47.423Z,83.90
2022-09-02T11:59:22.666Z,80.90
2022-09-02T12:01:55.572Z,83.20
2022-09-02T12:04:58.662Z,80.00
2022-09-02T12:07:26.760Z,80.50
2022-09-02T12:09:59.009Z,75.90
2022-09-02T12:13:08.506Z,76.00
2022-09-02T12:15:38.467Z,77.10
2022-09-02T12:18:27.707Z,76.10
2022-09-02T12:21:12.764Z,70.30
2022-09-02T12:24:22.101Z,72.00
2022-09-02T12:27:28.537Z,71.50
2022-09-02T12:29:59.898Z,77.40
2022-09-02T12:33:05.069Z,70.40
2022-09-02T12:35:57.626Z,70.60
2022-09-02T12:38:37.446Z,68.30
2022-09-02T12:41:34.999Z,75.00
2022-09-02T12:44:23.981Z,70.40
2022-09-02T12:47:04.244Z,66.90
2022-09-02T12:49:44.551Z,66.20
2022-09-02T12:52:33.677Z,66.40
2022-09-02T12:55:05.629Z,67.60
2022-09-02T12:57:41.088Z,68.80
2022-09-02T13:00:13.748Z,66.90
2022-09-02T13:02:55.817Z,67.20
2022-09-02T13:05:29.894Z,67.70
2022-09-02T13:08:23.737Z,67.60
2022-09-02T13:11:33.832Z,67.60
2022-09-02T13:14:36.613Z,69.60
2022-09-02T13:17:36.076Z,67.20
2022-09-02T13:20:37.628Z,66.10
2022-09-02T13:23:31.789Z,66.20
2022-09-02T13:26:48.970Z,64.70
2022-09-02T13:30:01.123Z,66.90
2022-09-02T13:32:31.460Z,64.80
2022-09-02T13:35:03.747Z,65.10
2022-09-02T13:37:36.750Z,65.40
2022-09-02T13:40:08.685Z,65.20
2022-09-02T13:42:37.291Z,66.60
2022-09-02T13:45:16.869Z,66.20
2022-09-02T13:47:48.226Z,64.40
2022-09-02T13:50:19.525Z,65.60
2022-09-02T13:53:45.841Z,65.90
2022-09-02T13:55:47.920Z,67.80
2022-09-02T13:58:23.964Z,65.30
2022-09-02T14:00:52.273Z,64.50
2022-09-02T14:03:22.252Z,64.40
2022-09-02T14:05:54.152Z,64.50
2022-09-02T14:08:26.889Z,65.10
2022-09-02T14:10:55.444Z,64.50
2022-09-02T14:13:24.702Z,63.20
2022-09-02T14:15:52.985Z,63.80
2022-09-02T14:18:25.008Z,63.60
2022-09-02T14:20:56.965Z,63.30
2022-09-02T14:23:28.752Z,64.80
2022-09-02T14:25:59.085Z,65.00
2022-09-02T14:28:29.426Z,64.20
2022-09-02T14:31:00.860Z,64.30
2022-09-02T14:33:39.744Z,64.90
2022-09-02T14:36:09.854Z,64.10
2022-09-02T14:38:52.419Z,64.90
2022-09-02T14:41:24.272Z,64.70
2022-09-02T14:43:55.479Z,63.90
2022-09-02T14:46:29.929Z,65.40
2022-09-02T14:49:03.368Z,66.10
2022-09-02T14:51:37.856Z,66.10
2022-09-02T14:54:08.466Z,64.70
2022-09-02T14:56:45.977Z,67.80
2022-09-02T14:59:14.215Z,67.80
2022-09-02T15:01:43.847Z,68.30
2022-09-02T15:04:12.123Z,65.90
2022-09-02T15:06:43.505Z,64.70
2022-09-02T15:09:16.415Z,64.80
2022-09-02T15:11:47.593Z,65.40
2022-09-02T15:14:15.901Z,64.70
2022-09-02T15:16:44.149Z,65.00
2022-09-02T15:19:12.386Z,64.20
2022-09-02T15:21:40.591Z,64.60
2022-09-02T15:24:09.000Z,64.80
2022-09-02T15:26:38.616Z,66.90
2022-09-02T15:29:07.870Z,64.90
2022-09-02T15:31:36.487Z,65.00
2022-09-02T15:34:04.953Z,66.30
2022-09-02T15:36:33.112Z,65.10
2022-09-02T15:39:01.709Z,64.20
2022-09-02T15:41:31.501Z,66.00
2022-09-02T15:44:01.220Z,64.70
2022-09-02T15:46:31.186Z,66.80
2022-09-02T15:49:04.132Z,67.30
2022-09-02T15:51:33.493Z,69.40
2022-09-02T15:54:03.456Z,67.60
2022-09-02T15:56:33.325Z,66.30
2022-09-02T15:59:05.060Z,66.40
2022-09-02T16:01:34.997Z,69.20
2022-09-02T16:04:03.517Z,68.40
2022-09-02T16:06:33.054Z,65.30
2022-09-02T16:09:01.650Z,65.80
2022-09-02T16:11:30.307Z,64.60
2022-09-02T16:13:58.731Z,64.30
2022-09-02T16:16:28.387Z,64.70
2022-09-02T16:18:56.965Z,63.50
2022-09-02T16:21:25.801Z,64.40
2022-09-02T16:23:54.014Z,63.60
2022-09-02T16:26:26.625Z,65.10
2022-09-02T16:28:56.617Z,63.80
2022-09-02T16:31:28.871Z,65.80
2022-09-02T16:33:58.759Z,64.70
2022-09-02T16:36:29.128Z,65.20
2022-09-02T16:39:01.896Z,65.50
2022-09-02T16:41:34.564Z,65.30
2022-09-02T16:44:04.919Z,66.10
2022-09-02T16:46:36.259Z,65.30
2022-09-02T16:49:04.855Z,65.50
2022-09-02T16:51:33.506Z,67.40
2022-09-02T16:54:03.799Z,65.60
2022-09-02T16:56:32.540Z,65.10
2022-09-02T16:59:03.181Z,66.80
2022-09-02T17:01:32.776Z,65.80
2022-09-02T17:04:02.530Z,65.10
2022-09-02T17:06:31.627Z,65.10
2022-09-02T17:09:00.032Z,65.50
2022-09-02T17:11:30.637Z,66.00
2022-09-02T17:14:00.922Z,65.10
2022-09-02T17:16:32.576Z,65.70
2022-09-02T17:19:02.636Z,65.90
2022-09-02T17:21:35.065Z,66.20
2022-09-02T17:24:03.887Z,65.20
2022-09-02T17:26:34.699Z,65.50
2022-09-02T17:29:08.548Z,65.30
2022-09-02T17:31:37.168Z,64.40
2022-09-02T17:34:08.665Z,65.00
2022-09-02T17:36:38.640Z,64.50
2022-09-02T17:39:09.153Z,64.80
2022-09-02T17:41:55.493Z,64.90
2022-09-02T17:44:25.097Z,65.20
2022-09-02T17:46:55.734Z,65.20
2022-09-02T17:49:25.695Z,65.90
2022-09-02T17:51:53.960Z,65.90
2022-09-02T17:54:22.709Z,65.70
2022-09-02T17:57:03.791Z,65.80
2022-09-02T17:59:41.735Z,66.30
2022-09-02T18:02:33.364Z,66.90
2022-09-02T18:05:09.629Z,66.70
2022-09-02T18:07:45.174Z,66.80
2022-09-02T18:10:13.954Z,67.10
2022-09-02T18:12:42.855Z,67.40
2022-09-02T18:15:16.500Z,67.60
2022-09-02T18:17:49.205Z,67.70
2022-09-02T18:20:28.053Z,67.80
2022-09-02T18:23:19.773Z,68.30
2022-09-02T18:25:54.088Z,68.30
2022-09-02T18:28:35.382Z,68.40
2022-09-02T18:31:14.803Z,68.50
2022-09-02T18:33:55.603Z,68.60
2022-09-02T18:36:36.929Z,69.10
2022-09-02T18:39:21.498Z,68.90
2022-09-02T18:42:07.511Z,68.60
2022-09-02T18:44:44.744Z,68.60
2022-09-02T18:47:18.738Z,68.50
2022-09-02T18:49:47.167Z,68.90
2022-09-02T18:52:16.891Z,68.60
2022-09-02T18:54:50.521Z,69.30
2022-09-02T18:57:18.825Z,69.70
2022-09-02T18:59:52.117Z,69.10
2022-09-02T19:02:35.640Z,69.50
2022-09-02T19:05:07.153Z,69.10
2022-09-02T19:07:55.791Z,69.30
2022-09-02T19:10:24.671Z,69.40
2022-09-02T19:12:52.998Z,69.40
2022-09-02T19:15:21.677Z,69.40
2022-09-02T19:17:50.272Z,69.70
2022-09-02T19:20:18.803Z,69.70
2022-09-02T19:22:52.843Z,69.70
2022-09-02T19:25:24.388Z,69.90
2022-09-02T19:27:55.328Z,70.20
2022-09-02T19:30:24.659Z,70.50
2022-09-02T19:32:55.201Z,70.30
2022-09-02T19:35:26.270Z,70.70
2022-09-02T19:37:56.353Z,70.70
2022-09-02T19:40:26.529Z,70.90
2022-09-02T19:42:55.206Z,71.20
2022-09-02T19:45:24.686Z,71.40
2022-09-02T19:48:09.330Z,71.80
2022-09-02T19:50:40.885Z,72.50
2022-09-02T19:53:16.011Z,72.50
2022-09-02T19:55:44.943Z,72.90
2022-09-02T19:58:13.223Z,72.70
2022-09-02T20:00:43.444Z,73.10
2022-09-02T20:03:13.026Z,73.50
2022-09-02T20:05:43.057Z,74.00
2022-09-02T20:08:12.632Z,74.10
2022-09-02T20:10:41.056Z,74.40
2022-09-02T20:13:13.622Z,74.60
2022-09-02T20:15:41.986Z,74.70
2022-09-02T20:18:12.450Z,75.00
2022-09-02T20:20:44.142Z,74.90
2022-09-02T20:23:17.218Z,75.50
2022-09-02T20:26:00.280Z,75.70
2022-09-02T20:28:37.868Z,75.70
2022-09-02T20:31:15.231Z,76.10
2022-09-02T20:33:51.141Z,76.40
2022-09-02T20:36:29.130Z,76.60
2022-09-02T20:39:11.953Z,76.90
2022-09-02T20:41:51.838Z,77.10
2022-09-02T20:44:43.012Z,77.30
2022-09-02T20:47:37.826Z,77.80
2022-09-02T20:50:21.384Z,78.00
2022-09-02T20:53:07.461Z,78.00
2022-09-02T20:55:42.000Z,78.20
2022-09-02T20:58:19.505Z,78.60
2022-09-02T21:00:58.814Z,78.60
2022-09-02T21:03:31.668Z,78.90
2022-09-02T21:06:02.991Z,79.20
2022-09-02T21:08:34.544Z,79.30
2022-09-02T21:11:13.030Z,80.40
2022-09-02T21:13:49.131Z,80.00
2022-09-02T21:16:20.684Z,80.00
2022-09-02T21:18:56.325Z,80.20
2022-09-02T21:21:29.884Z,80.40
2022-09-02T21:24:02.973Z,80.50
2022-09-02T21:26:42.992Z,80.80
2022-09-02T21:29:17.978Z,81.10
2022-09-02T21:31:51.152Z,81.30
2022-09-02T21:34:25.925Z,81.40
2022-09-02T21:36:56.673Z,81.60
2022-09-02T21:39:29.683Z,81.70
2022-09-02T21:42:11.123Z,82.20
2022-09-02T21:44:51.351Z,82.40
2022-09-02T21:47:24.860Z,82.80
2022-09-02T21:50:09.646Z,82.90
2022-09-02T21:52:51.259Z,83.00
2022-09-02T21:55:32.925Z,82.90
2022-09-02T21:58:16.508Z,83.30
2022-09-02T22:00:49.618Z,83.10
2022-09-02T22:03:23.490Z,83.90
2022-09-02T22:05:59.134Z,83.80
2022-09-02T22:08:33.961Z,83.70
2022-09-02T22:11:10.460Z,84.10
2022-09-02T22:13:40.920Z,85.10
2022-09-02T22:16:18.108Z,84.70
2022-09-02T22:18:55.352Z,84.60
2022-09-02T22:21:30.435Z,84.60
2022-09-02T22:23:59.529Z,84.50
2022-09-02T22:26:39.612Z,84.90
2022-09-02T22:29:17.341Z,84.90
2022-09-02T22:31:48.813Z,85.00
2022-09-02T22:34:20.132Z,85.30
2022-09-02T22:36:56.252Z,85.90
2022-09-02T22:39:35.194Z,86.00
2022-09-02T22:42:09.389Z,86.00
2022-09-02T22:45:02.457Z,86.50
2022-09-02T22:47:50.240Z,86.40
2022-09-02T22:50:41.335Z,86.30
2022-09-02T22:53:09.643Z,86.60
2022-09-02T22:55:51.722Z,86.80
2022-09-02T22:58:56.856Z,87.40
2022-09-02T23:01:35.608Z,87.60
2022-09-02T23:04:14.630Z,87.80
2022-09-02T23:06:44.848Z,88.30
2022-09-02T23:09:14.769Z,88.30
2022-09-02T23:11:53.546Z,88.70
2022-09-02T23:14:32.527Z,88.80
2022-09-02T23:17:33.715Z,89.20
2022-09-02T23:20:11.841Z,89.20
2022-09-02T23:22:59.299Z,89.60
2022-09-02T23:25:43.308Z,90.00
2022-09-02T23:28:16.763Z,90.00
2022-09-02T23:31:04.195Z,90.40
2022-09-02T23:33:49.500Z,90.20
2022-09-02T23:36:23.231Z,90.40
2022-09-02T23:39:19.872Z,90.50
2022-09-02T23:41:48.144Z,90.50
2022-09-02T23:44:16.695Z,90.60
2022-09-02T23:47:00.391Z,90.70
2022-09-02T23:49:39.635Z,90.70
2022-09-02T23:52:20.576Z,90.70
2022-09-02T23:55:04.856Z,90.90
2022-09-02T23:57:53.692Z,91.10
